Pagrindinis puslapis
METAR-TAF:

METAR-TAF

Oro uostai :

Albert Whitted Airport

St. Petersburg, Florida, Jungtinės Amerikos Valstijos

platuma: 27-46-04N, ilguma: 082-37-34W, Aukštis: 2 m

Dabartinis oras

Ataskaita buvo paskelbta 15 minutes, ne 18:53 UTC
Vėjas 5 kt iš Rytų
Temperatūra 28°C
Drėgmė 70%
Slėgis 1013 hPa
Matomumas: 16.1 km
Su prošvaistėmis ne aukštis 3900 ft
Su prošvaistėmis ne aukštis 4500 ft
Su prošvaistėmis ne aukštis 7000 ft

METAR: KSPG 171853Z 09005KT 10SM BKN039 BKN045 BKN070 28/22 A2990 RMK AO2 SLP123 T02780217

Laikas: 15:08 (19:08 UTC)


TAF: trūkstamas

Orai ataskaitas ir orų prognozės (METAR, TAF).

turimą stotys yra geltonos ir raudonos taškus žemėlapyje.

Perkelti pele per norėdami pamatyti stoties vardą.

Tada spustelėkite, norėdami matyti oro stebėjimo ir prognozės.

Norėdami pakeisti žemėlapį: spustelėkite ant žalios mygtukų su juodo kryžiaus žemyn,; žalią mygtuką su brūkšneliu, jei norite nutolinti; arba žalių rodyklių gretimoms žemėlapius.


METAR-TAF: